createdAt,value
2018-12-09T00:02:17.484Z,7.81
2018-12-09T00:04:44.539Z,7.94
2018-12-09T00:07:11.555Z,7.94
2018-12-09T00:09:38.660Z,7.62
2018-12-09T00:12:05.734Z,7.62
2018-12-09T00:14:32.844Z,7.56
2018-12-09T00:16:59.922Z,7.87
2018-12-09T00:19:27.060Z,7.50
2018-12-09T00:21:54.747Z,7.75
2018-12-09T00:24:21.792Z,7.56
2018-12-09T00:26:48.937Z,7.69
2018-12-09T00:29:16.104Z,7.62
2018-12-09T00:31:43.268Z,7.62
2018-12-09T00:34:10.460Z,7.81
2018-12-09T00:36:37.546Z,7.75
2018-12-09T00:39:05.722Z,7.56
2018-12-09T00:41:32.891Z,7.75
2018-12-09T00:44:00.040Z,7.37
2018-12-09T00:46:28.596Z,7.31
2018-12-09T00:48:55.598Z,7.56
2018-12-09T00:51:23.229Z,7.44
2018-12-09T00:53:50.498Z,7.50
2018-12-09T00:56:17.571Z,7.37
2018-12-09T00:58:44.682Z,7.44
2018-12-09T01:01:11.644Z,7.31
2018-12-09T01:03:38.648Z,7.62
2018-12-09T01:06:05.718Z,7.56
2018-12-09T01:08:32.746Z,7.56
2018-12-09T01:10:59.814Z,7.62
2018-12-09T01:13:26.862Z,7.62
2018-12-09T01:15:53.824Z,7.56
2018-12-09T01:18:20.804Z,7.62
2018-12-09T01:20:47.744Z,7.31
2018-12-09T01:23:14.973Z,7.62
2018-12-09T01:25:41.933Z,7.75
2018-12-09T01:28:08.904Z,7.62
2018-12-09T01:30:35.885Z,7.62
2018-12-09T01:33:02.894Z,7.44
2018-12-09T01:35:29.886Z,7.75
2018-12-09T01:37:56.912Z,7.62
2018-12-09T01:40:23.926Z,7.75
2018-12-09T01:42:50.907Z,7.87
2018-12-09T01:45:17.898Z,7.69
2018-12-09T01:47:44.908Z,7.75
2018-12-09T01:50:11.944Z,7.87
2018-12-09T01:52:38.960Z,7.94
2018-12-09T01:55:05.992Z,7.81
2018-12-09T01:57:33.008Z,7.94
2018-12-09T02:00:00.114Z,8.06
2018-12-09T02:02:27.156Z,7.94
2018-12-09T02:04:54.202Z,7.75
2018-12-09T02:07:21.180Z,7.75
2018-12-09T02:09:48.226Z,7.75
2018-12-09T02:12:15.291Z,7.94
2018-12-09T02:14:42.466Z,7.81
2018-12-09T02:17:09.738Z,7.81
2018-12-09T02:19:37.762Z,8.13
2018-12-09T02:22:04.822Z,8.13
2018-12-09T02:24:31.838Z,8.19
2018-12-09T02:26:58.854Z,8.06
2018-12-09T02:29:25.971Z,8.06
2018-12-09T02:31:52.957Z,8.19
2018-12-09T02:34:19.947Z,8.00
2018-12-09T02:36:47.003Z,8.13
2018-12-09T02:39:13.959Z,8.19
2018-12-09T02:41:40.991Z,8.19
2018-12-09T02:44:07.915Z,8.06
2018-12-09T02:46:34.891Z,8.13
2018-12-09T02:49:01.881Z,8.44
2018-12-09T02:51:28.910Z,8.19
2018-12-09T02:53:56.261Z,8.25
2018-12-09T02:56:24.324Z,8.31
2018-12-09T02:58:51.369Z,8.25
2018-12-09T03:01:18.350Z,8.25
2018-12-09T03:03:45.304Z,8.19
2018-12-09T03:06:12.282Z,8.19
2018-12-09T03:08:39.267Z,8.25
2018-12-09T03:11:06.278Z,8.25
2018-12-09T03:13:33.238Z,8.25
2018-12-09T03:16:00.299Z,8.44
2018-12-09T03:18:28.319Z,8.44
2018-12-09T03:20:55.303Z,8.25
2018-12-09T03:23:22.498Z,8.56
2018-12-09T03:25:49.443Z,8.44
2018-12-09T03:28:16.591Z,8.63
2018-12-09T03:30:43.622Z,8.63
2018-12-09T03:33:10.595Z,8.50
2018-12-09T03:35:37.551Z,8.50
2018-12-09T03:38:04.511Z,8.81
2018-12-09T03:40:31.574Z,8.56
2018-12-09T03:42:58.548Z,8.56
2018-12-09T03:45:25.650Z,8.56
2018-12-09T03:47:52.646Z,8.38
2018-12-09T03:50:19.602Z,8.50
2018-12-09T03:52:46.550Z,8.56
2018-12-09T03:55:13.562Z,8.69
2018-12-09T03:57:40.554Z,8.63
2018-12-09T04:00:07.537Z,8.44
2018-12-09T04:02:34.525Z,8.44
2018-12-09T04:05:01.505Z,8.69
2018-12-09T04:07:28.443Z,8.50
2018-12-09T04:09:55.388Z,8.69
2018-12-09T04:12:22.325Z,8.38
2018-12-09T04:14:49.390Z,8.31
2018-12-09T04:17:16.389Z,8.44
2018-12-09T04:19:43.338Z,8.38
2018-12-09T04:22:10.273Z,8.56
2018-12-09T04:24:37.246Z,8.56
2018-12-09T04:27:04.236Z,8.50
2018-12-09T04:29:31.776Z,8.44
2018-12-09T04:31:58.695Z,8.50
2018-12-09T04:34:25.908Z,8.38
2018-12-09T04:36:52.884Z,8.56
2018-12-09T04:39:19.808Z,8.31
2018-12-09T04:41:46.777Z,8.38
2018-12-09T04:44:13.699Z,8.25
2018-12-09T04:46:40.696Z,8.38
2018-12-09T04:49:07.675Z,8.69
2018-12-09T04:51:46.316Z,8.63
2018-12-09T04:54:13.285Z,8.56
2018-12-09T04:56:40.324Z,8.63
2018-12-09T04:59:16.291Z,8.63
2018-12-09T05:01:44.611Z,8.81
2018-12-09T05:04:10.714Z,8.88
2018-12-09T05:06:37.856Z,8.50
2018-12-09T05:09:05.146Z,8.75
2018-12-09T05:11:32.320Z,8.69
2018-12-09T05:13:59.414Z,8.94
2018-12-09T05:16:26.776Z,8.63
2018-12-09T05:18:54.090Z,8.56
2018-12-09T05:21:21.173Z,8.63
2018-12-09T05:23:48.125Z,8.81
2018-12-09T05:26:15.057Z,8.63
2018-12-09T05:28:42.097Z,8.50
2018-12-09T05:31:09.057Z,8.81
2018-12-09T05:33:36.208Z,8.81
2018-12-09T05:36:03.253Z,8.81
2018-12-09T05:38:30.371Z,8.88
2018-12-09T05:40:57.446Z,8.88
2018-12-09T05:43:24.511Z,8.81
2018-12-09T05:45:51.522Z,8.88
2018-12-09T05:48:18.696Z,8.56
2018-12-09T05:50:45.816Z,8.63
2018-12-09T05:53:12.982Z,8.63
2018-12-09T05:55:40.044Z,8.31
2018-12-09T05:58:07.430Z,8.38
2018-12-09T06:00:34.519Z,8.56
2018-12-09T06:03:01.646Z,8.50
2018-12-09T06:05:28.682Z,8.44
2018-12-09T06:07:56.371Z,8.63
2018-12-09T06:10:23.684Z,8.63
2018-12-09T06:12:50.717Z,8.63
2018-12-09T06:15:17.752Z,8.56
2018-12-09T06:17:44.789Z,8.75
2018-12-09T06:20:11.968Z,8.69
2018-12-09T06:22:38.945Z,8.56
2018-12-09T06:25:06.054Z,8.69
2018-12-09T06:27:33.049Z,8.38
2018-12-09T06:30:00.009Z,8.25
2018-12-09T06:32:27.179Z,8.38
2018-12-09T06:34:54.156Z,8.56
2018-12-09T06:37:21.118Z,8.38
2018-12-09T06:39:48.069Z,8.25
2018-12-09T06:42:15.200Z,8.13
2018-12-09T06:44:42.391Z,8.13
2018-12-09T06:47:09.462Z,7.94
2018-12-09T06:49:36.632Z,7.87
2018-12-09T06:52:03.744Z,8.19
2018-12-09T06:54:30.872Z,7.94
2018-12-09T06:56:58.097Z,7.81
2018-12-09T06:59:26.516Z,7.81
2018-12-09T07:01:54.072Z,8.06
2018-12-09T07:04:21.170Z,8.00
2018-12-09T07:06:48.233Z,8.06
2018-12-09T07:09:15.368Z,7.87
2018-12-09T07:11:42.577Z,8.06
2018-12-09T07:14:09.707Z,7.94
2018-12-09T07:16:36.810Z,7.87
2018-12-09T07:19:04.111Z,7.87
2018-12-09T07:21:31.697Z,7.87
2018-12-09T07:23:58.754Z,7.94
2018-12-09T07:26:26.642Z,7.81
2018-12-09T07:28:53.590Z,7.75
2018-12-09T07:31:20.505Z,7.94
2018-12-09T07:33:47.676Z,7.94
2018-12-09T07:36:14.670Z,7.75
2018-12-09T07:38:41.590Z,7.75
2018-12-09T07:41:08.581Z,7.81
2018-12-09T07:43:35.660Z,7.81
2018-12-09T07:46:02.679Z,7.94
2018-12-09T07:48:30.625Z,7.69
2018-12-09T07:50:57.598Z,7.75
2018-12-09T07:53:24.817Z,7.94
2018-12-09T07:55:51.778Z,7.87
2018-12-09T07:58:18.803Z,7.94
2018-12-09T08:00:45.753Z,7.81
2018-12-09T08:03:12.815Z,7.87
2018-12-09T08:05:39.784Z,7.94
2018-12-09T08:08:06.840Z,7.87
2018-12-09T08:10:33.822Z,7.69
2018-12-09T08:13:00.798Z,7.69
2018-12-09T08:15:27.885Z,7.87
2018-12-09T08:17:54.926Z,7.69
2018-12-09T08:20:22.640Z,7.62
2018-12-09T08:22:49.809Z,7.62
2018-12-09T08:25:16.792Z,7.56
2018-12-09T08:27:43.816Z,7.44
2018-12-09T08:30:10.948Z,7.31
2018-12-09T08:32:38.175Z,7.37
2018-12-09T08:35:05.548Z,7.37
2018-12-09T08:37:32.687Z,7.31
2018-12-09T08:40:00.914Z,7.37
2018-12-09T08:42:28.255Z,7.62
2018-12-09T08:44:55.427Z,7.44
2018-12-09T08:47:22.609Z,7.81
2018-12-09T08:49:49.708Z,8.00
2018-12-09T08:52:16.749Z,16.94
2018-12-09T08:54:43.811Z,10.69
2018-12-09T08:57:10.834Z,10.00
2018-12-09T08:59:37.949Z,9.19
2018-12-09T09:02:07.152Z,9.13
2018-12-09T09:04:34.818Z,8.63
2018-12-09T09:07:01.824Z,8.44
2018-12-09T09:09:28.762Z,8.38
2018-12-09T09:11:55.985Z,8.31
2018-12-09T09:14:23.170Z,8.19
2018-12-09T09:16:50.286Z,8.13
2018-12-09T09:19:17.417Z,8.06
2018-12-09T09:21:44.577Z,8.13
2018-12-09T09:24:11.737Z,8.31
2018-12-09T09:26:38.865Z,8.06
2018-12-09T09:29:06.712Z,7.81
2018-12-09T09:31:33.793Z,8.38
2018-12-09T09:34:01.124Z,8.31
2018-12-09T09:36:28.289Z,8.38
2018-12-09T09:38:55.858Z,8.25
2018-12-09T09:41:22.624Z,7.94
2018-12-09T09:43:49.833Z,8.13
2018-12-09T09:46:17.380Z,8.13
2018-12-09T09:48:44.473Z,8.19
2018-12-09T09:51:11.689Z,8.25
2018-12-09T09:53:39.082Z,8.19
2018-12-09T09:56:06.648Z,8.06
2018-12-09T09:58:34.223Z,8.00
2018-12-09T10:01:01.758Z,8.19
2018-12-09T10:03:29.102Z,8.50
2018-12-09T10:05:57.605Z,8.44
2018-12-09T10:08:25.175Z,8.50
2018-12-09T10:10:52.405Z,8.38
2018-12-09T10:13:19.634Z,8.00
2018-12-09T10:15:46.818Z,8.50
2018-12-09T10:18:14.106Z,8.25
2018-12-09T10:20:41.292Z,8.31
2018-12-09T10:23:08.494Z,8.56
2018-12-09T10:25:35.730Z,8.50
2018-12-09T10:28:02.948Z,8.50
2018-12-09T10:30:30.176Z,8.69
2018-12-09T10:32:57.420Z,8.75
2018-12-09T10:35:24.776Z,8.69
2018-12-09T10:37:51.909Z,8.63
2018-12-09T10:40:19.598Z,8.94
2018-12-09T10:42:48.779Z,8.75
2018-12-09T10:45:17.282Z,8.69
2018-12-09T10:47:44.669Z,8.81
2018-12-09T10:50:11.967Z,8.56
2018-12-09T10:52:39.035Z,8.88
2018-12-09T10:55:06.265Z,8.63
2018-12-09T10:57:33.434Z,8.81
2018-12-09T11:00:00.562Z,8.81
2018-12-09T11:02:27.670Z,8.44
2018-12-09T11:04:54.926Z,8.31
2018-12-09T11:07:22.927Z,8.63
2018-12-09T11:09:49.895Z,8.69
2018-12-09T11:12:16.974Z,8.75
2018-12-09T11:14:44.052Z,8.38
2018-12-09T11:17:11.219Z,8.56
2018-12-09T11:19:38.223Z,8.75
2018-12-09T11:22:05.531Z,8.63
2018-12-09T11:24:41.988Z,8.56
2018-12-09T11:27:09.024Z,8.88
2018-12-09T11:29:36.206Z,8.69
2018-12-09T11:32:03.269Z,8.88
2018-12-09T11:34:30.347Z,9.00
2018-12-09T11:36:57.524Z,9.13
2018-12-09T11:39:25.158Z,9.06
2018-12-09T11:41:52.231Z,9.00
2018-12-09T11:44:19.779Z,9.00
2018-12-09T11:46:48.820Z,8.56
2018-12-09T11:49:15.876Z,9.00
2018-12-09T11:51:42.903Z,9.06
2018-12-09T11:54:10.039Z,9.19
2018-12-09T11:56:37.084Z,9.06
2018-12-09T11:59:04.219Z,9.06
2018-12-09T12:01:36.526Z,8.81
2018-12-09T12:04:03.651Z,8.63
2018-12-09T12:06:30.792Z,9.00
2018-12-09T12:08:57.862Z,8.81
2018-12-09T12:11:25.032Z,8.94
2018-12-09T12:13:56.359Z,9.19
2018-12-09T12:16:23.338Z,9.06
2018-12-09T12:18:50.407Z,8.81
2018-12-09T12:21:17.502Z,9.13
2018-12-09T12:23:44.635Z,9.25
2018-12-09T12:26:12.047Z,9.13
2018-12-09T12:28:39.211Z,8.94
2018-12-09T12:31:06.595Z,8.81
2018-12-09T12:33:36.409Z,8.94
2018-12-09T12:36:03.511Z,9.06
2018-12-09T12:38:32.212Z,9.13
2018-12-09T12:40:59.881Z,9.19
2018-12-09T12:43:28.260Z,9.19
2018-12-09T12:45:55.286Z,8.81
2018-12-09T12:48:22.382Z,9.00
2018-12-09T12:50:49.610Z,8.81
2018-12-09T12:53:16.672Z,9.06
2018-12-09T12:55:43.758Z,9.00
2018-12-09T12:58:10.976Z,8.88
2018-12-09T13:00:38.029Z,9.19
2018-12-09T13:03:05.290Z,9.13
2018-12-09T13:05:32.459Z,8.75
2018-12-09T13:08:01.223Z,8.81
2018-12-09T13:10:29.951Z,8.88
2018-12-09T13:13:04.487Z,8.88
2018-12-09T13:15:34.676Z,9.00
2018-12-09T13:18:05.499Z,9.06
2018-12-09T13:20:34.228Z,9.00
2018-12-09T13:23:02.877Z,8.94
2018-12-09T13:25:30.549Z,8.94
2018-12-09T13:27:58.053Z,8.75
2018-12-09T13:30:25.499Z,8.94
2018-12-09T13:32:52.707Z,8.75
2018-12-09T13:35:20.381Z,8.94
2018-12-09T13:38:09.635Z,8.94
2018-12-09T13:40:40.784Z,8.88
2018-12-09T13:43:08.646Z,8.94
2018-12-09T13:45:35.990Z,8.75
2018-12-09T13:48:04.476Z,8.56
2018-12-09T13:50:31.941Z,8.94
2018-12-09T13:52:59.151Z,8.75
2018-12-09T13:55:27.275Z,8.63
2018-12-09T13:57:54.564Z,8.75
2018-12-09T14:00:21.952Z,8.81
2018-12-09T14:02:56.199Z,8.88
2018-12-09T14:05:25.284Z,8.56
2018-12-09T14:07:52.811Z,8.75
2018-12-09T14:10:21.207Z,8.63
2018-12-09T14:12:50.027Z,8.75
2018-12-09T14:15:18.367Z,8.81
2018-12-09T14:17:48.205Z,8.75
2018-12-09T14:20:16.885Z,8.75
2018-12-09T14:25:51.690Z,8.81
2018-12-09T14:28:20.728Z,8.75
2018-12-09T14:30:50.011Z,8.75
2018-12-09T14:33:24.013Z,8.75
2018-12-09T14:35:51.318Z,8.94
2018-12-09T14:38:18.642Z,8.63
2018-12-09T14:41:02.564Z,8.50
2018-12-09T14:43:29.909Z,8.44
2018-12-09T14:45:58.836Z,8.50
2018-12-09T14:48:30.750Z,8.63
2018-12-09T14:50:58.401Z,8.25
2018-12-09T14:53:25.787Z,8.63
2018-12-09T14:56:06.633Z,8.69
2018-12-09T14:58:34.561Z,8.75
2018-12-09T15:01:03.536Z,8.69
2018-12-09T15:03:31.711Z,8.56
2018-12-09T15:05:59.518Z,8.44
2018-12-09T15:08:27.733Z,8.38
2018-12-09T15:10:58.659Z,8.25
2018-12-09T15:13:27.675Z,8.38
2018-12-09T15:15:55.241Z,8.25
2018-12-09T15:33:01.745Z,7.87
2018-12-09T15:35:30.724Z,7.87
2018-12-09T15:37:59.173Z,7.87
2018-12-09T15:40:26.798Z,7.94
2018-12-09T15:42:54.175Z,7.87
2018-12-09T15:45:21.465Z,7.94
2018-12-09T15:47:50.158Z,8.00
2018-12-09T15:50:18.538Z,8.00
2018-12-09T15:52:45.721Z,8.00
2018-12-09T15:55:12.934Z,8.19
2018-12-09T15:57:44.621Z,7.94
2018-12-09T16:00:12.090Z,8.25
2018-12-09T16:02:39.554Z,8.19
2018-12-09T16:05:06.810Z,8.19
2018-12-09T16:07:35.737Z,8.19
2018-12-09T16:10:03.119Z,8.13
2018-12-09T16:12:30.340Z,8.19
2018-12-09T16:14:57.589Z,8.38
2018-12-09T16:17:28.650Z,8.56
2018-12-09T16:19:57.186Z,8.31
2018-12-09T16:22:24.427Z,8.19
2018-12-09T16:24:52.154Z,8.13
2018-12-09T16:27:19.622Z,8.25
2018-12-09T16:29:46.851Z,8.31
2018-12-09T16:32:14.194Z,8.13
2018-12-09T16:34:42.586Z,8.13
2018-12-09T16:37:10.019Z,7.94
2018-12-09T16:39:37.608Z,7.94
2018-12-09T16:42:11.869Z,7.94
2018-12-09T16:44:45.016Z,7.94
2018-12-09T16:47:27.015Z,7.81
2018-12-09T16:49:54.456Z,8.06
2018-12-09T17:08:03.199Z,7.81
2018-12-09T17:19:02.551Z,8.00
2018-12-09T17:21:31.284Z,7.87
2018-12-09T17:24:00.057Z,8.06
2018-12-09T17:26:28.040Z,8.06
2018-12-09T17:29:05.573Z,8.13
2018-12-09T17:31:32.547Z,7.94
2018-12-09T17:37:02.287Z,8.00
2018-12-09T17:39:29.554Z,8.00
2018-12-09T17:41:56.776Z,7.94
2018-12-09T17:44:28.354Z,7.81
2018-12-09T17:46:57.288Z,7.81
2018-12-09T17:52:40.680Z,7.81
2018-12-09T17:55:08.176Z,7.75
2018-12-09T17:57:35.937Z,7.81
2018-12-09T18:00:04.521Z,7.94
2018-12-09T18:02:32.887Z,8.00
2018-12-09T18:05:00.797Z,7.81
2018-12-09T18:07:29.184Z,7.87
2018-12-09T18:09:57.789Z,7.75
2018-12-09T18:12:25.395Z,7.87
2018-12-09T18:14:53.159Z,7.69
2018-12-09T18:17:24.243Z,7.62
2018-12-09T18:19:51.783Z,7.62
2018-12-09T18:22:19.454Z,7.62
2018-12-09T18:24:50.198Z,7.69
2018-12-09T18:27:17.651Z,7.69
2018-12-09T18:29:46.464Z,7.81
2018-12-09T18:32:13.726Z,7.81
2018-12-09T18:34:41.101Z,7.81
2018-12-09T18:37:08.601Z,7.87
2018-12-09T18:39:36.977Z,7.87
2018-12-09T18:42:04.378Z,7.81
2018-12-09T18:44:31.697Z,7.81
2018-12-09T18:46:59.144Z,7.75
2018-12-09T18:49:26.727Z,8.06
2018-12-09T18:51:54.005Z,7.87
2018-12-09T18:54:21.318Z,7.81
2018-12-09T18:56:49.821Z,7.75
2018-12-09T18:59:17.381Z,7.94
2018-12-09T19:01:46.055Z,8.00
2018-12-09T19:04:15.247Z,7.81
2018-12-09T19:06:43.245Z,7.94
2018-12-09T19:09:11.123Z,7.81
2018-12-09T19:11:44.329Z,7.75
2018-12-09T19:14:11.685Z,7.81
2018-12-09T19:16:38.838Z,7.87
2018-12-09T19:19:06.061Z,7.81
2018-12-09T19:21:33.214Z,7.81
2018-12-09T19:24:00.406Z,7.75
2018-12-09T19:26:27.817Z,7.94
2018-12-09T19:28:55.924Z,7.81
2018-12-09T19:31:23.431Z,7.87
2018-12-09T19:33:51.260Z,7.87
2018-12-09T19:36:18.403Z,7.81
2018-12-09T19:38:45.690Z,7.75
2018-12-09T19:41:13.035Z,7.81
2018-12-09T19:43:43.479Z,7.69
2018-12-09T19:46:12.983Z,7.69
2018-12-09T19:48:41.371Z,8.00
2018-12-09T19:51:08.636Z,7.87
2018-12-09T19:53:36.473Z,8.13
2018-12-09T19:56:04.517Z,7.81
2018-12-09T19:58:31.202Z,7.81
2018-12-09T20:00:58.938Z,7.94
2018-12-09T20:03:27.879Z,7.81
2018-12-09T20:05:55.527Z,7.69
2018-12-09T20:08:23.472Z,7.81
2018-12-09T20:10:51.954Z,7.81
2018-12-09T20:13:19.462Z,7.81
2018-12-09T20:15:56.925Z,7.75
2018-12-09T20:18:24.164Z,7.94
2018-12-09T20:20:52.321Z,7.87
2018-12-09T20:23:19.428Z,7.87
2018-12-09T20:26:08.468Z,7.94
2018-12-09T20:28:35.663Z,7.81
2018-12-09T20:31:12.772Z,7.75
2018-12-09T20:34:08.240Z,7.56
2018-12-09T20:39:34.161Z,7.62
2018-12-09T20:52:11.756Z,8.06
2018-12-09T21:03:26.799Z,7.62
2018-12-09T21:22:38.916Z,7.87
2018-12-09T21:25:06.650Z,8.00
2018-12-09T21:27:33.714Z,7.87
2018-12-09T21:30:00.795Z,8.06
2018-12-09T21:32:27.991Z,8.00
2018-12-09T21:34:55.146Z,8.13
2018-12-09T21:37:23.465Z,8.00
2018-12-09T21:39:50.771Z,8.13
2018-12-09T21:42:17.947Z,8.19
2018-12-09T21:44:45.031Z,8.31
2018-12-09T21:47:12.118Z,8.13
2018-12-09T21:49:39.217Z,8.06
2018-12-09T21:52:07.162Z,7.94
2018-12-09T21:54:34.252Z,8.06
2018-12-09T21:57:01.498Z,7.87
2018-12-09T21:59:28.776Z,7.94
2018-12-09T22:01:55.782Z,7.94
2018-12-09T22:04:22.986Z,8.00
2018-12-09T22:06:49.989Z,8.00
2018-12-09T22:09:17.048Z,8.06
2018-12-09T22:11:44.024Z,7.81
2018-12-09T22:14:11.510Z,7.81
2018-12-09T22:16:38.557Z,7.69
2018-12-09T22:19:06.555Z,7.87
2018-12-09T22:21:33.657Z,7.56
2018-12-09T22:24:00.655Z,7.94
2018-12-09T22:26:27.921Z,7.94
2018-12-09T22:28:55.133Z,7.94
2018-12-09T22:31:22.434Z,8.06
2018-12-09T22:33:49.595Z,8.00
2018-12-09T22:36:16.881Z,8.00
2018-12-09T22:38:44.239Z,7.94
2018-12-09T22:41:11.291Z,7.81
2018-12-09T22:43:38.382Z,7.87
2018-12-09T22:46:06.228Z,7.81
2018-12-09T22:48:33.262Z,7.81
2018-12-09T22:51:00.260Z,7.94
2018-12-09T22:53:27.674Z,7.94
2018-12-09T22:55:54.736Z,8.13
2018-12-09T22:58:21.724Z,8.13
2018-12-09T23:00:55.206Z,8.06
2018-12-09T23:03:27.471Z,7.87
2018-12-09T23:05:58.489Z,7.81
2018-12-09T23:08:25.474Z,7.81
2018-12-09T23:10:52.448Z,7.81
2018-12-09T23:13:19.618Z,7.94
2018-12-09T23:15:47.372Z,7.75
2018-12-09T23:18:14.331Z,7.87
2018-12-09T23:20:42.096Z,7.75
2018-12-09T23:23:09.082Z,7.81
2018-12-09T23:25:36.234Z,7.81
2018-12-09T23:28:03.513Z,7.75
2018-12-09T23:30:30.794Z,7.87
2018-12-09T23:32:57.746Z,7.62
2018-12-09T23:35:26.162Z,7.69
2018-12-09T23:37:53.134Z,7.62
2018-12-09T23:40:20.767Z,7.69
2018-12-09T23:42:47.881Z,7.69
2018-12-09T23:45:15.720Z,7.81
2018-12-09T23:47:42.895Z,7.56
2018-12-09T23:50:11.923Z,7.69
2018-12-09T23:52:40.412Z,7.75
2018-12-09T23:55:08.319Z,7.62
2018-12-09T23:57:36.755Z,7.56
